createdAt,value
2024-04-24T00:03:11.942Z,94.10
2024-04-24T00:07:14.093Z,93.80
2024-04-24T00:11:25.066Z,93.10
2024-04-24T00:15:27.493Z,93.10
2024-04-24T00:19:29.524Z,93.50
2024-04-24T00:23:31.477Z,93.20
2024-04-24T00:27:33.484Z,93.20
2024-04-24T00:31:35.555Z,93.00
2024-04-24T00:35:37.749Z,93.00
2024-04-24T00:39:39.890Z,93.10
2024-04-24T00:43:42.006Z,93.10
2024-04-24T00:47:44.431Z,93.70
2024-04-24T00:51:47.910Z,93.90
2024-04-24T00:55:50.279Z,94.00
2024-04-24T00:59:52.481Z,93.90
2024-04-24T01:03:54.623Z,93.50
2024-04-24T01:07:57.356Z,93.20
2024-04-24T01:11:59.789Z,93.30
2024-04-24T01:16:05.176Z,93.30
2024-04-24T01:20:11.872Z,93.00
2024-04-24T01:24:25.305Z,92.60
2024-04-24T01:28:27.626Z,92.50
2024-04-24T01:32:29.901Z,92.60
2024-04-24T01:36:32.263Z,92.20
2024-04-24T01:40:34.417Z,92.40
2024-04-24T01:44:36.658Z,92.60
2024-04-24T01:48:38.834Z,92.20
2024-04-24T01:52:40.944Z,92.30
2024-04-24T01:56:42.896Z,92.30
2024-04-24T02:00:44.916Z,92.00
2024-04-24T02:04:47.120Z,92.60
2024-04-24T02:08:49.158Z,92.80
2024-04-24T02:12:51.138Z,92.50
2024-04-24T02:16:53.137Z,92.30
2024-04-24T02:20:55.099Z,92.50
2024-04-24T02:25:15.622Z,92.50
2024-04-24T02:29:17.853Z,92.70
2024-04-24T02:33:20.052Z,91.60
2024-04-24T02:37:22.169Z,91.70
2024-04-24T02:41:24.202Z,90.80
2024-04-24T02:45:26.294Z,91.20
2024-04-24T02:49:28.598Z,90.60
2024-04-24T02:53:30.816Z,90.70
2024-04-24T02:57:35.592Z,90.30
2024-04-24T03:01:37.787Z,90.20
2024-04-24T03:05:39.874Z,90.50
2024-04-24T03:09:41.924Z,90.30
2024-04-24T03:13:43.950Z,90.70
2024-04-24T03:17:46.032Z,91.20
2024-04-24T03:21:48.178Z,90.70
2024-04-24T03:25:50.420Z,88.80
2024-04-24T03:29:52.636Z,88.40
2024-04-24T03:33:54.654Z,88.30
2024-04-24T03:37:56.768Z,90.30
2024-04-24T03:41:58.859Z,89.70
2024-04-24T03:46:01.708Z,89.40
2024-04-24T03:50:03.952Z,90.20
2024-04-24T03:54:06.098Z,90.20
2024-04-24T03:58:08.170Z,90.40
2024-04-24T04:02:10.476Z,90.00
2024-04-24T04:06:12.584Z,89.80
2024-04-24T04:10:14.741Z,89.50
2024-04-24T04:14:16.965Z,90.00
2024-04-24T04:18:19.112Z,90.60
2024-04-24T04:22:21.097Z,90.60
2024-04-24T04:26:23.245Z,91.10
2024-04-24T04:30:25.476Z,90.60
2024-04-24T04:34:27.557Z,90.70
2024-04-24T04:38:29.929Z,90.60
2024-04-24T04:42:32.089Z,90.40
2024-04-24T04:46:34.219Z,90.30
2024-04-24T04:50:36.570Z,90.40
2024-04-24T04:54:38.765Z,90.40
2024-04-24T04:58:40.965Z,90.40
2024-04-24T05:02:43.186Z,90.50
2024-04-24T05:06:45.682Z,90.60
2024-04-24T05:10:47.957Z,90.60
2024-04-24T05:14:52.035Z,90.80
2024-04-24T05:18:54.015Z,90.50
2024-04-24T05:23:01.734Z,90.90
2024-04-24T05:27:22.591Z,90.80
2024-04-24T05:31:24.597Z,90.30
2024-04-24T05:35:26.603Z,90.50
2024-04-24T05:39:28.803Z,90.60
2024-04-24T05:43:30.877Z,90.20
2024-04-24T05:47:33.038Z,90.60
2024-04-24T05:51:35.156Z,90.00
2024-04-24T05:55:37.198Z,88.10
2024-04-24T05:59:39.326Z,86.70
2024-04-24T06:03:41.487Z,84.30
2024-04-24T06:07:43.686Z,85.30
2024-04-24T06:11:45.850Z,88.50
2024-04-24T06:15:47.870Z,90.00
2024-04-24T06:19:50.224Z,90.30
2024-04-24T06:23:52.208Z,90.20
2024-04-24T06:27:54.212Z,89.90
2024-04-24T06:31:56.384Z,90.40
2024-04-24T06:35:58.425Z,90.70
2024-04-24T06:40:00.694Z,89.40
2024-04-24T06:44:02.877Z,85.00
2024-04-24T06:48:06.413Z,78.50
2024-04-24T06:52:08.608Z,78.20
2024-04-24T06:56:10.570Z,81.20
2024-04-24T07:00:12.894Z,79.00
2024-04-24T07:04:15.031Z,77.80
2024-04-24T07:08:17.230Z,77.60
2024-04-24T07:12:19.412Z,76.70
2024-04-24T07:16:21.442Z,76.00
2024-04-24T07:20:23.716Z,76.70
2024-04-24T07:24:25.990Z,75.10
2024-04-24T07:28:28.126Z,76.20
2024-04-24T07:32:30.132Z,75.40
2024-04-24T07:36:32.244Z,76.00
2024-04-24T07:40:34.308Z,73.00
2024-04-24T07:44:36.384Z,74.30
2024-04-24T07:48:38.655Z,73.50
2024-04-24T07:52:41.190Z,73.70
2024-04-24T07:56:43.387Z,74.20
2024-04-24T08:00:45.574Z,74.90
2024-04-24T08:04:47.736Z,73.60
2024-04-24T08:08:49.863Z,74.20
2024-04-24T08:12:51.768Z,71.90
2024-04-24T08:16:53.932Z,71.60
2024-04-24T08:20:56.197Z,71.30
2024-04-24T08:24:58.335Z,71.80
2024-04-24T08:29:00.523Z,72.30
2024-04-24T08:33:02.676Z,73.20
2024-04-24T08:37:05.055Z,71.70
2024-04-24T08:41:13.665Z,72.70
2024-04-24T08:45:17.822Z,72.80
2024-04-24T08:49:21.700Z,73.60
2024-04-24T08:53:27.798Z,72.10
2024-04-24T08:57:30.561Z,73.70
2024-04-24T09:01:38.782Z,73.90
2024-04-24T09:05:41.336Z,73.80
2024-04-24T09:09:44.363Z,72.00
2024-04-24T09:13:46.622Z,74.70
2024-04-24T09:17:50.884Z,75.50
2024-04-24T09:21:53.242Z,76.80
2024-04-24T09:25:56.947Z,78.60
2024-04-24T09:29:59.148Z,77.30
2024-04-24T09:34:01.189Z,77.50
2024-04-24T09:38:03.330Z,79.10
2024-04-24T09:42:14.920Z,77.70
2024-04-24T09:46:19.523Z,76.40
2024-04-24T09:50:21.723Z,77.50
2024-04-24T09:54:25.002Z,78.40
2024-04-24T09:58:28.372Z,80.10
2024-04-24T10:02:33.080Z,81.60
2024-04-24T10:06:37.197Z,82.50
2024-04-24T10:10:42.994Z,84.00
2024-04-24T10:14:54.180Z,83.60
2024-04-24T10:18:58.008Z,83.90
2024-04-24T10:23:01.862Z,83.00
2024-04-24T10:27:06.297Z,83.40
2024-04-24T10:31:09.342Z,83.60
2024-04-24T10:35:11.840Z,83.60
2024-04-24T10:39:15.307Z,83.60
2024-04-24T10:43:17.905Z,83.40
2024-04-24T10:47:21.363Z,83.20
2024-04-24T10:51:33.986Z,84.40
2024-04-24T10:55:36.063Z,82.30
2024-04-24T10:59:38.094Z,82.50
2024-04-24T11:03:40.326Z,81.80
2024-04-24T11:07:43.030Z,82.30
2024-04-24T11:11:46.302Z,83.30
2024-04-24T11:15:54.847Z,83.90
2024-04-24T11:20:04.212Z,87.90
2024-04-24T11:24:06.417Z,86.30
2024-04-24T11:28:18.113Z,87.80
2024-04-24T11:32:21.658Z,90.50
2024-04-24T11:36:24.432Z,92.90
2024-04-24T11:40:26.580Z,94.70
2024-04-24T11:44:29.895Z,93.20
2024-04-24T11:48:40.411Z,94.30
2024-04-24T11:52:47.047Z,92.70
2024-04-24T11:56:51.499Z,92.90
2024-04-24T12:00:54.173Z,91.80
2024-04-24T12:04:56.368Z,91.10
2024-04-24T12:09:03.519Z,92.10
2024-04-24T12:13:05.934Z,91.20
2024-04-24T12:17:07.899Z,90.40
2024-04-24T12:21:09.975Z,91.90
2024-04-24T12:25:12.190Z,92.70
2024-04-24T12:29:14.274Z,93.40
2024-04-24T12:33:16.544Z,92.90
2024-04-24T12:37:19.674Z,93.50
2024-04-24T12:41:21.820Z,93.60
2024-04-24T12:45:24.487Z,92.40
2024-04-24T12:49:26.880Z,91.90
2024-04-24T12:53:29.037Z,92.00
2024-04-24T12:57:31.188Z,91.80
2024-04-24T13:01:33.393Z,91.30
2024-04-24T13:05:35.559Z,91.20
2024-04-24T13:09:38.061Z,90.20
2024-04-24T13:13:40.330Z,90.10
2024-04-24T13:17:42.476Z,88.10
2024-04-24T13:21:44.528Z,88.10
2024-04-24T13:25:48.971Z,88.60
2024-04-24T13:29:51.024Z,88.30
2024-04-24T13:33:53.110Z,86.50
2024-04-24T13:37:55.423Z,85.30
2024-04-24T13:41:57.498Z,85.30
2024-04-24T13:45:59.589Z,88.10
2024-04-24T13:50:01.837Z,90.10
2024-04-24T13:54:04.983Z,89.50
2024-04-24T13:58:07.212Z,89.10
2024-04-24T14:02:09.623Z,88.30
2024-04-24T14:06:11.906Z,85.60
2024-04-24T14:10:14.130Z,85.00
2024-04-24T14:14:20.831Z,84.50
2024-04-24T14:18:22.799Z,82.00
2024-04-24T14:22:25.049Z,82.20
2024-04-24T14:26:27.428Z,83.20
2024-04-24T14:30:29.693Z,82.90
2024-04-24T14:34:31.808Z,79.60
2024-04-24T14:38:33.967Z,82.80
2024-04-24T14:42:36.953Z,83.80
2024-04-24T14:46:39.108Z,85.20
2024-04-24T14:50:41.264Z,85.50
2024-04-24T14:54:43.485Z,83.00
2024-04-24T14:58:45.558Z,81.40
2024-04-24T15:02:51.115Z,81.10
2024-04-24T15:07:04.242Z,90.10
2024-04-24T15:11:06.477Z,93.50
2024-04-24T15:15:08.823Z,93.80
2024-04-24T15:19:11.476Z,93.60
2024-04-24T15:23:14.750Z,93.20
2024-04-24T15:27:16.940Z,92.70
2024-04-24T15:31:18.992Z,92.50
2024-04-24T15:35:23.739Z,93.10
2024-04-24T15:39:25.964Z,93.40
2024-04-24T15:43:28.107Z,93.10
2024-04-24T15:47:30.265Z,93.90
2024-04-24T15:51:32.466Z,93.90
2024-04-24T15:55:36.606Z,92.20
2024-04-24T15:59:38.991Z,92.60
2024-04-24T16:03:41.509Z,92.80
2024-04-24T16:07:44.021Z,92.60
2024-04-24T16:11:46.158Z,92.30
2024-04-24T16:15:48.332Z,92.30
2024-04-24T16:19:50.261Z,92.80
2024-04-24T16:23:52.266Z,92.50
2024-04-24T16:27:54.345Z,92.60
2024-04-24T16:31:56.499Z,92.30
2024-04-24T16:36:01.481Z,92.20
2024-04-24T16:40:04.075Z,92.00
2024-04-24T16:44:06.373Z,92.10
2024-04-24T16:48:12.138Z,91.20
2024-04-24T16:52:14.603Z,90.70
2024-04-24T16:56:18.690Z,90.70
2024-04-24T17:00:24.525Z,90.60
2024-04-24T17:04:26.677Z,90.60
2024-04-24T17:08:30.510Z,90.50
2024-04-24T17:12:32.804Z,90.10
2024-04-24T17:16:34.797Z,90.50
2024-04-24T17:20:36.862Z,89.60
2024-04-24T17:24:38.979Z,90.10
2024-04-24T17:28:41.154Z,90.00
2024-04-24T17:32:43.544Z,90.00
2024-04-24T17:36:45.737Z,90.20
2024-04-24T17:40:48.082Z,90.10
2024-04-24T17:44:54.065Z,90.20
2024-04-24T17:48:56.327Z,90.30
2024-04-24T17:52:59.777Z,94.00
2024-04-24T17:57:01.946Z,96.40
2024-04-24T18:01:04.425Z,97.80
2024-04-24T18:05:08.251Z,98.50
2024-04-24T18:09:10.411Z,98.10
2024-04-24T18:13:12.867Z,97.10
2024-04-24T18:17:17.115Z,96.70
2024-04-24T18:21:19.123Z,96.90
2024-04-24T18:25:21.155Z,96.90
2024-04-24T18:29:23.517Z,96.30
2024-04-24T18:33:25.781Z,95.80
2024-04-24T18:37:28.028Z,95.60
2024-04-24T18:41:30.211Z,95.30
2024-04-24T18:45:32.263Z,95.40
2024-04-24T18:49:34.457Z,95.40
2024-04-24T18:53:36.753Z,95.80
2024-04-24T18:57:43.510Z,95.90
2024-04-24T19:01:46.494Z,95.40
2024-04-24T19:05:48.999Z,95.00
2024-04-24T19:09:51.083Z,95.00
2024-04-24T19:13:53.566Z,95.50
2024-04-24T19:17:55.737Z,95.70
2024-04-24T19:21:58.050Z,94.40
2024-04-24T19:26:00.329Z,95.50
2024-04-24T19:30:04.427Z,95.70
2024-04-24T19:34:06.797Z,95.20
2024-04-24T19:38:08.930Z,94.90
2024-04-24T19:42:11.118Z,94.90
2024-04-24T19:46:13.355Z,95.00
2024-04-24T19:50:16.622Z,94.70
2024-04-24T19:54:19.677Z,95.10
2024-04-24T19:58:21.715Z,94.80
2024-04-24T20:02:26.179Z,95.00
2024-04-24T20:06:30.248Z,94.80
2024-04-24T20:10:32.479Z,94.40
2024-04-24T20:14:34.560Z,95.00
2024-04-24T20:18:38.508Z,94.60
2024-04-24T20:22:44.263Z,94.70
2024-04-24T20:26:48.628Z,94.70
2024-04-24T20:30:50.723Z,94.80
2024-04-24T20:34:53.112Z,95.30
2024-04-24T20:38:56.686Z,95.50
2024-04-24T20:42:58.762Z,94.90
2024-04-24T20:47:01.078Z,94.70
2024-04-24T20:51:03.734Z,94.70
2024-04-24T20:55:06.656Z,94.80
2024-04-24T20:59:09.313Z,94.40
2024-04-24T21:03:11.510Z,94.70
2024-04-24T21:07:14.019Z,94.80
2024-04-24T21:11:20.754Z,95.20
2024-04-24T21:15:22.935Z,94.70
2024-04-24T21:19:24.936Z,94.60
2024-04-24T21:23:27.024Z,94.60
2024-04-24T21:27:29.236Z,94.70
2024-04-24T21:31:31.346Z,94.90
2024-04-24T21:35:38.662Z,95.10
2024-04-24T21:39:40.942Z,95.10
2024-04-24T21:43:43.040Z,94.80
2024-04-24T21:47:45.211Z,95.00
2024-04-24T21:51:47.432Z,94.90
2024-04-24T21:55:49.730Z,94.80
2024-04-24T21:59:51.780Z,94.70
2024-04-24T22:03:57.537Z,94.50
2024-04-24T22:07:59.794Z,94.80
2024-04-24T22:12:02.065Z,94.40
2024-04-24T22:16:04.669Z,94.40
2024-04-24T22:20:07.562Z,94.30
2024-04-24T22:24:09.615Z,94.50
2024-04-24T22:28:14.524Z,94.90
2024-04-24T22:32:16.885Z,94.90
2024-04-24T22:36:19.091Z,94.80
2024-04-24T22:40:21.233Z,94.90
2024-04-24T22:44:23.367Z,95.10
2024-04-24T22:48:25.589Z,95.10
2024-04-24T22:52:27.626Z,94.90
2024-04-24T22:56:29.817Z,94.70
2024-04-24T23:00:31.822Z,94.60
2024-04-24T23:04:33.952Z,94.30
2024-04-24T23:08:36.835Z,94.40
2024-04-24T23:12:39.007Z,94.30
2024-04-24T23:16:41.144Z,94.60
2024-04-24T23:20:43.252Z,94.30
2024-04-24T23:24:45.402Z,94.30
2024-04-24T23:28:47.494Z,94.40
2024-04-24T23:32:49.950Z,94.50
2024-04-24T23:36:52.301Z,94.60
2024-04-24T23:40:54.376Z,95.50
2024-04-24T23:44:59.356Z,96.40
2024-04-24T23:49:01.467Z,96.70
2024-04-24T23:53:03.660Z,96.10
2024-04-24T23:57:05.730Z,95.60
